Time;durP1;ratioP1;P1;durP2;ratioP2;P2;SDS_P1;SDS_P2;PMS_P1;PMS_P2;Temp;Humidity;BMP_temperature;BMP_pressure;BME280_temperature;BME280_humidity;BME280_pressure;Samples;Min_cycle;Max_cycle;Signal;HPM_P1;HPM_P2
2021/07/24 00:02:43;;;;;;;17.57;13.00;;;;;;;17.91;83.84;100154.12;2730601;87;21036;-61
2021/07/24 00:06:47;;;;;;;19.90;14.50;;;;;;;17.95;83.61;100152.75;2721848;85;21067;-61
2021/07/24 00:10:48;;;;;;;20.95;15.30;;;;;;;18.03;83.19;100152.72;2692143;88;20992;-61
2021/07/24 00:14:50;;;;;;;18.67;14.05;;;;;;;18.10;82.72;100157.74;2688623;88;21067;-61
2021/07/24 00:18:52;;;;;;;21.90;15.05;;;;;;;18.09;81.97;100154.72;2662453;89;21040;-61
2021/07/24 00:22:54;;;;;;;17.75;13.32;;;;;;;18.16;81.89;100153.47;2692190;88;21063;-61
2021/07/24 00:26:56;;;;;;;27.13;14.65;;;;;;;18.28;82.11;100149.88;2688402;88;21032;-62
2021/07/24 00:30:58;;;;;;;21.73;14.30;;;;;;;18.34;82.18;100144.27;2688710;88;21088;-62
2021/07/24 00:35:00;;;;;;;19.70;14.40;;;;;;;18.26;82.32;100127.16;2662281;89;21103;-60
2021/07/24 00:39:05;;;;;;;19.32;15.20;;;;;;;18.02;83.25;100130.86;2692068;88;20996;-62
2021/07/24 00:43:09;;;;;;;22.50;15.23;;;;;;;17.86;83.92;100134.48;2688494;88;21004;-60
2021/07/24 00:47:23;;;;;;;19.77;15.00;;;;;;;17.69;84.43;100130.53;2687942;88;21016;-61
2021/07/24 00:51:31;;;;;;;18.75;14.20;;;;;;;17.55;85.27;100136.16;2661758;89;21056;-62
2021/07/24 00:55:33;;;;;;;21.65;15.95;;;;;;;17.56;85.17;100137.83;2661869;89;21588;-61
2021/07/24 00:59:35;;;;;;;23.75;15.35;;;;;;;17.43;85.67;100138.06;2661926;89;21036;-60
2021/07/24 01:03:37;;;;;;;22.98;14.50;;;;;;;17.32;86.35;100133.38;2661685;88;21075;-61
2021/07/24 01:07:41;;;;;;;22.55;15.30;;;;;;;17.26;86.71;100136.25;2664319;89;21139;-60
2021/07/24 01:11:43;;;;;;;25.12;14.00;;;;;;;17.20;86.90;100132.92;2729965;87;21096;-62
2021/07/24 01:15:51;;;;;;;23.57;15.55;;;;;;;17.17;87.16;100133.28;2730080;87;21087;-62
2021/07/24 01:19:53;;;;;;;23.90;15.15;;;;;;;17.15;87.42;100129.93;2729890;87;21039;-60
2021/07/24 01:23:55;;;;;;;19.77;15.55;;;;;;;17.13;87.70;100129.27;2730216;87;21055;-61
2021/07/24 01:27:57;;;;;;;24.47;15.30;;;;;;;17.12;88.19;100125.72;2730055;87;21075;-61
2021/07/24 01:31:59;;;;;;;23.70;17.75;;;;;;;17.13;88.48;100126.58;2730151;85;21064;-61
2021/07/24 01:36:01;;;;;;;25.08;17.57;;;;;;;17.16;88.72;100128.06;2729812;87;21060;-61
2021/07/24 01:40:04;;;;;;;24.30;17.00;;;;;;;17.19;88.83;100129.05;2730182;87;21012;-60
2021/07/24 01:44:06;;;;;;;27.32;18.25;;;;;;;17.18;88.78;100117.97;2730289;87;21043;-60
2021/07/24 01:48:16;;;;;;;31.25;17.52;;;;;;;17.16;88.87;100120.00;2729754;87;21063;-61
2021/07/24 01:56:50;;;;;;;21.02;15.00;;;;;;;17.15;88.81;100119.17;2730466;86;21064;-61
2021/07/24 02:00:52;;;;;;;21.73;17.00;;;;;;;17.16;88.76;100124.03;2729915;87;21075;-60
2021/07/24 02:04:58;;;;;;;24.25;17.02;;;;;;;17.24;88.94;100113.27;2729846;85;21080;-62
2021/07/24 02:08:59;;;;;;;24.43;16.70;;;;;;;17.39;88.86;100102.13;2735421;87;21048;-62
2021/07/24 02:13:01;;;;;;;22.20;16.93;;;;;;;17.43;87.87;100105.28;2711692;87;20979;-62
2021/07/24 02:17:04;;;;;;;20.57;16.17;;;;;;;17.35;87.71;100106.67;2711556;87;21015;-61
2021/07/24 02:21:08;;;;;;;27.25;15.48;;;;;;;17.24;88.45;100100.66;2707133;88;21094;-61
2021/07/24 02:25:10;;;;;;;22.93;16.82;;;;;;;17.21;88.73;100103.69;2738177;86;21079;-62
2021/07/24 02:29:12;;;;;;;23.67;15.85;;;;;;;17.24;88.91;100101.99;2711609;87;20999;-62
2021/07/24 02:33:14;;;;;;;24.57;17.40;;;;;;;17.38;88.70;100096.91;2711669;87;20964;-61
2021/07/24 02:37:16;;;;;;;23.32;16.48;;;;;;;17.42;87.82;100094.19;2706860;88;21568;-61
2021/07/24 02:41:18;;;;;;;24.27;17.95;;;;;;;17.47;87.53;100095.02;2737898;87;21073;-62
2021/07/24 02:45:20;;;;;;;27.73;18.65;;;;;;;17.45;87.18;100094.36;2685583;87;21007;-63
2021/07/24 02:49:22;;;;;;;28.75;18.23;;;;;;;17.48;87.34;100088.10;2711820;87;21087;-61
2021/07/24 02:53:23;;;;;;;23.70;17.20;;;;;;;17.51;87.11;100095.84;2706896;88;21056;-61
2021/07/24 02:57:25;;;;;;;22.00;15.13;;;;;;;17.44;86.44;100088.13;2738318;86;21070;-62
2021/07/24 03:01:27;;;;;;;22.48;16.23;;;;;;;17.29;86.84;100094.77;2711798;87;21083;-61
2021/07/24 03:05:29;;;;;;;27.85;16.57;;;;;;;17.24;87.61;100106.55;2711563;87;21066;-62
2021/07/24 03:09:30;;;;;;;60.40;20.25;;;;;;;17.34;88.00;100105.82;2701079;87;21592;-61
2021/07/24 03:13:32;;;;;;;22.25;16.45;;;;;;;17.49;88.10;100105.94;2699062;88;21055;-62
2021/07/24 03:17:34;;;;;;;26.50;17.87;;;;;;;17.60;87.22;100099.33;2730053;87;21043;-61
2021/07/24 03:21:36;;;;;;;26.60;16.27;;;;;;;17.66;86.71;100103.14;2729310;87;21570;-61
2021/07/24 03:25:42;;;;;;;31.25;16.90;;;;;;;17.58;86.26;100097.81;2730081;87;21075;-62
2021/07/24 03:29:44;;;;;;;26.45;16.10;;;;;;;17.35;87.00;100095.39;2729601;87;21063;-62
2021/07/24 03:33:45;;;;;;;24.15;16.32;;;;;;;17.21;88.23;100098.84;2730064;87;21043;-62
2021/07/24 03:37:47;;;;;;;31.15;16.95;;;;;;;17.32;88.70;100094.93;2729913;87;21613;-61
2021/07/24 03:41:49;;;;;;;25.12;16.20;;;;;;;17.45;88.49;100102.42;2729740;87;21111;-61
2021/07/24 03:45:51;;;;;;;26.10;17.27;;;;;;;17.59;88.29;100103.52;2729719;87;21643;-61
2021/07/24 03:49:53;;;;;;;27.20;18.67;;;;;;;17.72;88.23;100106.48;2729666;87;21103;-60
2021/07/24 03:53:54;;;;;;;32.17;20.32;;;;;;;17.81;87.77;100108.63;2729749;87;21063;-61
2021/07/24 03:57:57;;;;;;;29.40;19.90;;;;;;;17.85;87.70;100105.37;2730473;87;21558;-60
2021/07/24 04:01:59;;;;;;;20.97;15.95;;;;;;;17.87;87.84;100098.97;2730389;87;21041;-60
2021/07/24 04:06:01;;;;;;;26.82;17.25;;;;;;;17.79;88.29;100095.33;2729661;85;21083;-62
2021/07/24 04:10:07;;;;;;;24.30;17.70;;;;;;;17.73;88.90;100105.47;2736178;87;21052;-62
2021/07/24 04:14:10;;;;;;;25.65;17.87;;;;;;;17.82;89.17;100098.19;2738569;87;21647;-61
2021/07/24 04:18:12;;;;;;;25.23;16.37;;;;;;;17.99;89.11;100107.83;2738289;87;21115;-62
2021/07/24 04:22:23;;;;;;;35.73;18.60;;;;;;;18.22;88.95;100107.50;2711749;87;20991;-62
2021/07/24 04:26:26;;;;;;;22.48;16.73;;;;;;;18.41;88.29;100102.97;2716605;86;21027;-62
2021/07/24 04:30:28;;;;;;;27.32;18.62;;;;;;;18.54;87.13;100096.13;2683025;87;21933;-60
2021/07/24 04:34:30;;;;;;;26.27;15.60;;;;;;;18.63;86.94;100094.20;2749615;85;21043;-60
2021/07/24 04:38:32;;;;;;;25.05;16.77;;;;;;;18.75;86.80;100094.58;2750111;85;21055;-60
2021/07/24 04:42:33;;;;;;;25.90;16.27;;;;;;;18.90;86.53;100096.78;2750079;86;21007;-61
2021/07/24 04:46:38;;;;;;;23.62;16.82;;;;;;;19.08;86.73;100096.95;2750336;85;21034;-62
2021/07/24 04:50:44;;;;;;;23.18;18.05;;;;;;;19.39;86.58;100094.53;2750993;85;21044;-61
2021/07/24 04:54:48;;;;;;;25.08;17.27;;;;;;;19.58;85.42;100096.31;2750715;85;21667;-62
2021/07/24 04:58:50;;;;;;;30.97;19.23;;;;;;;19.61;85.42;100097.28;2750511;85;21571;-60
2021/07/24 05:02:53;;;;;;;24.25;16.37;;;;;;;19.63;84.94;100092.03;2750474;85;21621;-61
2021/07/24 05:06:56;;;;;;;26.85;18.10;;;;;;;19.69;85.00;100094.48;2749995;85;21083;-61
2021/07/24 05:10:58;;;;;;;27.87;17.40;;;;;;;19.75;84.53;100092.36;2704161;86;21048;-62
2021/07/24 05:14:59;;;;;;;21.35;15.98;;;;;;;19.80;84.25;100083.70;2701165;87;21659;-62
2021/07/24 05:19:01;;;;;;;23.73;17.70;;;;;;;19.90;84.67;100099.05;2700687;88;21079;-61
2021/07/24 05:23:04;;;;;;;22.15;16.20;;;;;;;20.04;84.34;100093.29;2700229;88;21039;-61
2021/07/24 05:27:06;;;;;;;21.02;17.15;;;;;;;20.18;83.94;100095.63;2700179;88;20985;-60
2021/07/24 05:31:22;;;;;;;21.57;16.12;;;;;;;20.32;83.22;100096.57;2700239;88;21028;-61
2021/07/24 05:35:25;;;;;;;29.42;16.55;;;;;;;20.47;82.85;100095.66;2700286;87;21308;-62
2021/07/24 05:39:26;;;;;;;19.12;14.33;;;;;;;20.67;83.22;100097.98;2700426;87;21040;-62
2021/07/24 05:43:28;;;;;;;18.87;15.28;;;;;;;20.92;82.59;100106.16;2700977;87;21043;-62
2021/07/24 05:47:34;;;;;;;17.00;14.68;;;;;;;21.18;81.77;100094.66;2701227;88;21059;-61
2021/07/24 05:51:38;;;;;;;19.77;14.33;;;;;;;21.67;81.62;100100.09;2701273;88;21083;-60
2021/07/24 05:55:39;;;;;;;21.82;13.68;;;;;;;22.01;80.02;100098.30;2701525;87;20985;-61
2021/07/24 05:59:41;;;;;;;19.25;15.63;;;;;;;22.14;78.36;100096.64;2701706;88;21008;-60
2021/07/24 06:03:42;;;;;;;20.08;13.85;;;;;;;22.13;77.82;100099.03;2701803;86;21060;-60
2021/07/24 06:07:44;;;;;;;18.65;14.28;;;;;;;22.29;77.66;100105.91;2701898;86;21028;-60
2021/07/24 06:11:46;;;;;;;23.22;15.23;;;;;;;22.37;75.83;100098.95;2702180;88;21053;-61
2021/07/24 06:15:48;;;;;;;20.48;14.85;;;;;;;22.45;75.15;100101.97;2701666;88;24240;-61
2021/07/24 06:19:50;;;;;;;25.65;16.05;;;;;;;22.55;74.76;100102.40;2701548;88;21044;-61
2021/07/24 06:23:52;;;;;;;22.30;15.60;;;;;;;22.61;75.32;100104.30;2702112;87;21035;-60
2021/07/24 06:27:53;;;;;;;20.45;14.25;;;;;;;22.84;75.46;100096.22;2701956;88;21040;-60
2021/07/24 06:31:55;;;;;;;20.80;13.80;;;;;;;23.11;73.82;100097.50;2702133;87;21061;-60
2021/07/24 06:35:59;;;;;;;20.30;16.75;;;;;;;23.46;73.17;100095.84;2702797;87;21118;-61
2021/07/24 06:40:01;;;;;;;18.15;12.40;;;;;;;24.03;71.23;100088.33;2702545;87;21024;-61
2021/07/24 06:44:04;;;;;;;15.90;11.88;;;;;;;24.56;68.60;100094.36;2702543;87;21047;-61
2021/07/24 06:48:06;;;;;;;21.52;17.80;;;;;;;24.94;67.58;100096.66;2703052;88;21028;-61
2021/07/24 06:52:08;;;;;;;18.48;12.73;;;;;;;25.28;65.25;100094.90;2688283;88;21013;-61
2021/07/24 06:56:12;;;;;;;33.98;22.32;;;;;;;25.38;63.70;100090.58;2703218;87;21012;-62
2021/07/24 07:00:14;;;;;;;82.53;57.93;;;;;;;25.41;63.45;100091.17;2703396;87;21072;-61
2021/07/24 07:04:15;;;;;;;29.77;20.90;;;;;;;25.40;63.16;100086.27;2703159;86;21072;-62
2021/07/24 07:08:17;;;;;;;21.87;15.95;;;;;;;25.66;62.78;100089.72;2703072;86;21092;-63
2021/07/24 07:12:19;;;;;;;17.30;11.57;;;;;;;25.89;61.99;100087.62;2703570;88;21083;-62
2021/07/24 07:16:20;;;;;;;61.33;21.23;;;;;;;25.90;60.72;100088.43;2703346;87;21052;-62
2021/07/24 07:20:22;;;;;;;19.23;10.53;;;;;;;25.81;60.87;100088.77;2703315;88;21044;-62
2021/07/24 07:24:24;;;;;;;30.50;19.50;;;;;;;25.76;60.88;100088.65;2703386;88;21016;-62
2021/07/24 07:28:26;;;;;;;24.15;17.25;;;;;;;25.72;60.87;100090.15;2703574;87;21096;-62
2021/07/24 07:32:27;;;;;;;16.32;13.72;;;;;;;25.70;61.72;100086.83;2703441;87;21039;-62
2021/07/24 07:36:31;;;;;;;21.05;14.83;;;;;;;26.12;61.56;100083.80;2703520;88;21008;-62
2021/07/24 07:40:38;;;;;;;11.73;8.20;;;;;;;26.57;59.00;100079.20;2701726;87;21028;-62
2021/07/24 07:44:40;;;;;;;11.93;10.43;;;;;;;26.87;58.12;100081.52;2693332;88;21004;-61
2021/07/24 07:48:42;;;;;;;13.48;10.55;;;;;;;27.19;57.86;100076.47;2694265;88;21019;-62
2021/07/24 07:52:44;;;;;;;11.25;8.78;;;;;;;27.76;55.22;100067.17;2694280;88;21015;-61
2021/07/24 07:56:45;;;;;;;12.75;7.87;;;;;;;28.17;54.86;100060.25;2694595;88;21028;-61
2021/07/24 08:00:47;;;;;;;13.00;8.13;;;;;;;28.53;52.78;100056.70;2694281;88;21048;-62
2021/07/24 08:04:49;;;;;;;9.15;7.53;;;;;;;28.78;51.29;100055.39;2694371;87;21050;-62
2021/07/24 08:08:51;;;;;;;9.98;7.40;;;;;;;28.99;50.96;100049.69;2697055;88;21039;-62
2021/07/24 08:12:53;;;;;;;9.00;6.65;;;;;;;29.16;50.38;100035.91;2709996;88;21039;-63
2021/07/24 08:16:54;;;;;;;13.13;7.37;;;;;;;29.31;50.81;100042.66;2709731;88;21051;-63
2021/07/24 08:20:56;;;;;;;9.03;7.42;;;;;;;29.64;50.57;100036.70;2709812;88;21047;-64
2021/07/24 08:24:58;;;;;;;40.83;12.80;;;;;;;29.80;48.87;100040.42;2709514;88;21870;-63
2021/07/24 08:29:00;;;;;;;11.57;6.80;;;;;;;30.00;46.43;100012.34;2709044;88;21071;-62
2021/07/24 08:33:03;;;;;;;10.43;6.78;;;;;;;30.00;46.43;100012.34;2709784;88;21019;-62
2021/07/24 08:37:06;;;;;;;9.93;6.58;;;;;;;30.18;46.31;100007.56;2709880;88;21019;-63
2021/07/24 08:41:08;;;;;;;8.83;6.97;;;;;;;30.18;46.31;100007.56;2709706;88;21055;-63
2021/07/24 08:45:19;;;;;;;7.17;6.12;;;;;;;30.36;45.82;100000.80;2686002;88;21023;-62
2021/07/24 08:49:21;;;;;;;11.65;7.72;;;;;;;30.46;44.99;99994.55;2710026;88;21075;-63
2021/07/24 08:53:26;;;;;;;9.83;6.55;;;;;;;30.57;44.27;99993.52;2709756;86;21052;-62
2021/07/24 08:57:35;;;;;;;15.18;7.62;;;;;;;30.66;44.61;99993.03;2710053;88;21541;-64
2021/07/24 09:01:40;;;;;;;7.75;6.58;;;;;;;30.85;44.56;99981.05;2709671;88;21027;-64
2021/07/24 09:05:43;;;;;;;11.35;6.72;;;;;;;30.87;44.27;99981.06;2709557;86;21032;-65
2021/07/24 09:09:47;;;;;;;10.58;6.58;;;;;;;30.95;44.23;99980.25;2709628;88;21076;-63
2021/07/24 09:13:49;;;;;;;11.75;7.87;;;;;;;31.06;44.24;99971.77;2691150;88;21123;-64
2021/07/24 09:17:51;;;;;;;10.23;7.45;;;;;;;31.09;44.22;99964.92;2709648;88;21087;-65
2021/07/24 09:21:53;;;;;;;8.45;6.30;;;;;;;31.12;45.78;99967.12;2690941;87;21011;-65
2021/07/24 09:25:55;;;;;;;14.35;6.40;;;;;;;31.32;44.05;99973.22;2717679;87;20999;-64
2021/07/24 09:29:57;;;;;;;12.25;5.97;;;;;;;31.56;45.20;99977.37;2717796;86;21067;-66
2021/07/24 09:33:58;;;;;;;9.48;7.08;;;;;;;31.57;44.01;99966.11;2717831;87;21023;-65
2021/07/24 09:38:00;;;;;;;9.28;6.35;;;;;;;31.61;42.79;99973.23;2717798;86;21047;-64
2021/07/24 09:42:07;;;;;;;6.83;6.12;;;;;;;31.63;43.83;99977.91;2718114;87;21390;-66
2021/07/24 09:46:17;;;;;;;9.88;6.33;;;;;;;31.24;42.04;99971.02;2716518;87;20980;-64
2021/07/24 09:50:19;;;;;;;9.63;7.10;;;;;;;30.95;41.88;99981.62;2718039;86;21098;-64
2021/07/24 09:54:26;;;;;;;23.65;7.65;;;;;;;30.71;43.45;99979.35;2717420;87;21051;-66
2021/07/24 09:58:29;;;;;;;9.15;6.92;;;;;;;30.71;44.96;99976.61;2687043;88;21048;-63
2021/07/24 10:02:31;;;;;;;22.82;7.67;;;;;;;30.68;43.21;99981.27;2710049;88;21004;-65
2021/07/24 10:06:44;;;;;;;7.75;6.50;;;;;;;30.53;44.01;99975.11;2709963;88;21119;-63
2021/07/24 10:10:48;;;;;;;7.80;6.97;;;;;;;30.43;44.83;99966.28;2691970;87;21047;-67
2021/07/24 10:14:51;;;;;;;17.12;7.72;;;;;;;30.38;44.27;99964.89;2720597;87;21027;-65
2021/07/24 10:18:54;;;;;;;11.88;7.00;;;;;;;30.48;43.37;99960.28;2720913;87;21039;-63
2021/07/24 10:22:56;;;;;;;9.48;7.17;;;;;;;30.59;44.17;99958.41;2720972;87;21047;-65
2021/07/24 10:27:18;;;;;;;10.70;7.78;;;;;;;30.61;42.42;99958.98;2719718;87;21062;-66
2021/07/24 10:31:45;;;;;;;8.33;7.42;;;;;;;30.77;43.14;99949.45;2693905;87;21039;-65
2021/07/24 10:35:46;;;;;;;8.63;7.12;;;;;;;30.98;42.76;99950.88;2719272;87;21011;-63
2021/07/24 10:39:49;;;;;;;9.70;7.50;;;;;;;30.87;42.36;99952.23;2720413;86;21015;-66
2021/07/24 10:44:39;;;;;;;9.58;7.65;;;;;;;30.59;42.10;99944.69;2720071;87;21008;-65
2021/07/24 10:48:46;;;;;;;11.33;7.45;;;;;;;30.68;43.07;99945.02;2719059;87;20996;-64
2021/07/24 10:53:08;;;;;;;8.15;6.80;;;;;;;30.76;42.54;99942.31;2720313;87;21084;-63
2021/07/24 10:57:18;;;;;;;9.23;6.65;;;;;;;30.60;42.99;99938.09;2716183;87;21019;-63
2021/07/24 11:01:28;;;;;;;12.37;6.80;;;;;;;30.60;42.39;99934.55;2716390;87;21560;-65
2021/07/24 11:05:30;;;;;;;11.43;6.45;;;;;;;30.78;42.58;99931.34;2710990;87;21063;-66
2021/07/24 11:09:32;;;;;;;14.23;8.05;;;;;;;30.90;43.82;99925.61;2715508;86;21029;-65
2021/07/24 11:13:46;;;;;;;7.62;6.83;;;;;;;30.95;43.52;99923.97;2689513;88;21037;-66
2021/07/24 11:18:26;;;;;;;9.45;8.00;;;;;;;30.91;43.11;99928.63;2689073;88;21081;-65
2021/07/24 11:22:29;;;;;;;13.88;7.30;;;;;;;30.98;43.58;99933.88;2689313;88;21032;-64
2021/07/24 11:26:33;;;;;;;13.88;6.85;;;;;;;31.08;41.64;99934.44;2688763;88;21115;-62
2021/07/24 11:30:35;;;;;;;8.05;6.85;;;;;;;31.08;41.71;99933.06;2689197;88;21056;-63
2021/07/24 11:34:39;;;;;;;9.30;7.75;;;;;;;31.07;42.21;99930.05;2689035;88;21022;-62
2021/07/24 11:38:41;;;;;;;11.43;7.08;;;;;;;31.02;42.58;99932.76;2689045;88;21016;-65
2021/07/24 11:42:46;;;;;;;14.85;7.20;;;;;;;31.01;42.77;99928.36;2689103;88;21040;-64
2021/07/24 11:47:07;;;;;;;9.28;7.08;;;;;;;31.22;41.77;99927.05;2687707;88;21036;-64
2021/07/24 11:51:10;;;;;;;11.18;7.40;;;;;;;31.27;40.41;99925.70;2689048;88;21037;-63
2021/07/24 11:55:13;;;;;;;11.90;8.08;;;;;;;31.33;40.67;99930.09;2689625;88;21068;-63
2021/07/24 11:59:16;;;;;;;9.25;6.72;;;;;;;31.38;40.57;99928.72;2689256;88;21084;-65
2021/07/24 12:03:23;;;;;;;9.70;7.65;;;;;;;31.47;40.29;99920.22;2689648;88;21060;-62
2021/07/24 12:07:35;;;;;;;13.03;7.65;;;;;;;31.54;40.70;99916.36;2689869;88;21020;-64
2021/07/24 12:11:38;;;;;;;12.53;7.00;;;;;;;31.42;40.35;99917.45;2689169;88;21048;-65
2021/07/24 12:16:04;;;;;;;8.70;7.35;;;;;;;31.22;41.42;99907.82;2689474;88;21448;-64
2021/07/24 12:20:12;;;;;;;8.55;6.33;;;;;;;31.15;41.57;99902.56;2680894;88;21052;-63
2021/07/24 12:24:24;;;;;;;10.43;7.83;;;;;;;31.20;41.04;99905.37;2653411;88;21110;-62
2021/07/24 12:28:35;;;;;;;8.15;7.25;;;;;;;31.27;40.34;99899.05;2666923;89;21031;-64
2021/07/24 12:32:41;;;;;;;9.70;7.80;;;;;;;31.13;40.51;99898.73;2667119;89;20991;-65
2021/07/24 12:37:06;;;;;;;11.30;7.97;;;;;;;30.94;40.57;99903.09;2667477;88;21067;-65
2021/07/24 12:41:08;;;;;;;11.50;7.20;;;;;;;30.89;43.23;99903.38;2712711;87;21075;-64
2021/07/24 12:45:25;;;;;;;12.73;7.25;;;;;;;30.79;41.18;99899.22;2719314;87;21303;-64
2021/07/24 12:49:37;;;;;;;9.08;8.10;;;;;;;30.58;41.22;99907.36;2718497;87;21047;-65
2021/07/24 12:53:40;;;;;;;57.38;15.50;;;;;;;30.41;41.74;99906.20;2719180;87;21056;-64
2021/07/24 12:57:44;;;;;;;10.45;6.87;;;;;;;30.41;42.52;99904.00;2719265;86;21035;-67
2021/07/24 13:01:49;;;;;;;11.88;7.40;;;;;;;30.64;42.01;99889.84;2719262;87;21047;-64
2021/07/24 13:05:51;;;;;;;;;;;;;;;30.81;41.08;99888.78;2721678;86;21067;-66
2021/07/24 13:09:54;;;;;;;10.58;7.00;;;;;;;30.98;41.11;99885.81;2722682;86;20192;-64
2021/07/24 13:13:56;;;;;;;10.00;6.80;;;;;;;31.11;40.95;99880.87;2706471;88;21004;-64
2021/07/24 13:18:16;;;;;;;13.38;7.90;;;;;;;31.26;40.58;99897.96;2705677;88;21023;-65
2021/07/24 13:22:18;;;;;;;8.98;7.40;;;;;;;31.31;40.10;99891.89;2705345;88;21039;-64
2021/07/24 13:30:49;;;;;;;10.03;7.53;;;;;;;31.13;40.41;99891.87;2705762;88;21039;-64
2021/07/24 13:34:51;;;;;;;10.38;7.92;;;;;;;31.15;40.27;99902.03;2705659;88;20964;-65
2021/07/24 13:38:54;;;;;;;9.40;7.65;;;;;;;31.14;40.35;99899.01;2721799;86;21023;-65
2021/07/24 13:43:00;;;;;;;10.72;7.75;;;;;;;31.09;40.37;99904.50;2758148;86;21031;-65
2021/07/24 13:47:11;;;;;;;8.73;7.80;;;;;;;31.05;40.00;99900.63;2757406;86;21047;-63
2021/07/24 13:51:13;;;;;;;8.23;6.83;;;;;;;31.18;40.09;99898.73;2758403;86;21032;-66
2021/07/24 13:55:15;;;;;;;12.18;8.75;;;;;;;31.37;40.24;99899.59;2731315;86;21283;-65
2021/07/24 13:59:19;;;;;;;8.38;7.25;;;;;;;31.52;39.92;99897.95;2757749;86;21102;-65
2021/07/24 14:03:23;;;;;;;8.20;6.90;;;;;;;31.57;39.53;99895.19;2757914;85;21043;-64
2021/07/24 14:07:26;;;;;;;14.55;8.73;;;;;;;31.60;39.83;99898.22;2758441;86;21012;-63
2021/07/24 14:11:28;;;;;;;41.28;10.03;;;;;;;31.63;40.63;99898.20;2745501;86;21041;-64
2021/07/24 14:15:30;;;;;;;10.10;7.75;;;;;;;31.60;40.21;99893.26;2724108;87;21036;-64
2021/07/24 14:19:45;;;;;;;9.93;7.87;;;;;;;31.56;39.80;99890.80;2724297;87;21024;-65
2021/07/24 14:23:49;;;;;;;11.68;7.80;;;;;;;31.63;40.02;99888.58;2723997;87;21008;-65
2021/07/24 14:27:50;;;;;;;11.33;8.20;;;;;;;31.70;39.75;99880.89;2724599;87;20996;-64
2021/07/24 14:31:52;;;;;;;13.98;8.25;;;;;;;31.69;39.63;99876.50;2724579;87;20964;-66
2021/07/24 14:35:54;;;;;;;7.90;6.08;;;;;;;31.67;39.51;99884.20;2724093;87;21078;-65
2021/07/24 14:40:01;;;;;;;7.85;6.83;;;;;;;31.62;39.26;99878.15;2724050;87;21012;-65
2021/07/24 14:44:04;;;;;;;11.83;8.30;;;;;;;31.40;39.48;99877.63;2724208;87;21004;-66
2021/07/24 14:48:11;;;;;;;13.50;8.70;;;;;;;31.28;39.76;99875.16;2678009;87;21022;-65
2021/07/24 14:52:13;;;;;;;10.23;7.17;;;;;;;31.15;40.11;99877.84;2660655;89;21063;-65
2021/07/24 14:56:17;;;;;;;11.12;7.85;;;;;;;31.13;39.80;99872.64;2702076;86;21024;-65
2021/07/24 15:00:19;;;;;;;9.30;7.40;;;;;;;31.18;39.87;99864.96;2664896;89;21039;-65
2021/07/24 15:04:21;;;;;;;10.58;7.87;;;;;;;31.28;39.85;99873.22;2664637;89;21076;-64
2021/07/24 15:08:59;;;;;;;11.95;7.83;;;;;;;31.34;39.54;99865.80;2665038;88;21068;-66
2021/07/24 15:13:01;;;;;;;8.50;7.58;;;;;;;31.36;39.25;99872.41;2669607;89;21557;-64
2021/07/24 15:17:39;;;;;;;10.85;8.38;;;;;;;31.30;39.06;99865.52;2671650;89;21072;-63
2021/07/24 15:21:41;;;;;;;14.93;7.97;;;;;;;31.23;38.98;99860.03;2671839;89;21043;-63
2021/07/24 15:25:43;;;;;;;17.80;8.18;;;;;;;31.20;38.84;99863.59;2671630;89;21028;-68
2021/07/24 15:30:21;;;;;;;10.30;7.45;;;;;;;31.20;39.17;99855.92;2671635;89;21024;-63
2021/07/24 15:34:23;;;;;;;9.03;6.47;;;;;;;31.22;39.12;99853.73;2671822;89;21012;-65
2021/07/24 15:39:02;;;;;;;8.10;7.03;;;;;;;31.23;38.96;99847.13;2671155;88;21020;-66
2021/07/24 15:43:03;;;;;;;7.85;6.05;;;;;;;31.19;39.02;99842.70;2671780;88;21087;-65
2021/07/24 15:47:40;;;;;;;9.78;7.20;;;;;;;31.06;39.14;99835.02;2671820;87;21052;-66
2021/07/24 15:51:42;;;;;;;10.75;6.85;;;;;;;31.02;39.00;99833.90;2671752;89;21056;-65
2021/07/24 15:55:44;;;;;;;14.95;8.93;;;;;;;30.92;39.39;99836.93;2671879;88;20972;-63
2021/07/24 16:00:22;;;;;;;13.35;8.93;;;;;;;30.91;39.26;99838.03;2671831;89;21048;-65
2021/07/24 16:04:25;;;;;;;9.00;7.40;;;;;;;30.84;39.28;99837.45;2671612;89;21071;-64
2021/07/24 16:08:29;;;;;;;15.95;14.43;;;;;;;30.78;39.13;99834.43;2689813;88;21025;-67
2021/07/24 16:12:31;;;;;;;8.50;7.47;;;;;;;30.82;39.52;99831.98;2689892;88;21096;-63
2021/07/24 16:16:34;;;;;;;12.75;8.48;;;;;;;30.84;39.05;99822.92;2690087;88;21120;-62
2021/07/24 16:20:35;;;;;;;8.35;7.08;;;;;;;30.81;39.08;99824.28;2689946;88;21040;-64
2021/07/24 16:24:37;;;;;;;9.18;6.85;;;;;;;30.74;38.94;99820.98;2690001;88;21032;-65
2021/07/24 16:28:49;;;;;;;8.33;6.95;;;;;;;30.63;38.99;99822.33;2690182;88;21081;-65
2021/07/24 16:32:51;;;;;;;8.53;6.67;;;;;;;30.53;39.33;99818.17;2690312;88;21008;-64
2021/07/24 16:36:54;;;;;;;9.65;7.35;;;;;;;30.53;39.48;99818.17;2689877;88;21044;-63
2021/07/24 16:40:56;;;;;;;9.98;7.25;;;;;;;30.50;39.88;99818.72;2689857;88;21033;-65
2021/07/24 16:45:02;;;;;;;7.22;6.47;;;;;;;30.46;39.88;99816.21;2689946;88;21051;-65
2021/07/24 16:49:17;;;;;;;8.38;6.95;;;;;;;30.38;39.94;99814.84;2689838;88;21107;-66
2021/07/24 16:53:19;;;;;;;10.55;7.05;;;;;;;30.29;39.84;99818.66;2689904;88;20984;-62
2021/07/24 16:57:24;;;;;;;9.25;7.08;;;;;;;30.15;39.92;99814.77;2689819;88;21009;-65
2021/07/24 17:01:25;;;;;;;11.55;7.87;;;;;;;30.03;40.24;99808.13;2689913;88;21084;-67
2021/07/24 17:05:27;;;;;;;13.98;7.75;;;;;;;29.95;40.60;99808.06;2690124;88;21028;-63
2021/07/24 17:10:08;;;;;;;8.13;7.12;;;;;;;29.82;40.83;99803.06;2689650;88;21038;-63
2021/07/24 17:14:15;;;;;;;8.23;6.60;;;;;;;29.71;41.20;99800.81;2703528;87;21028;-65
2021/07/24 17:18:50;;;;;;;8.85;6.85;;;;;;;29.63;41.47;99795.28;2706123;87;21032;-66
2021/07/24 17:22:52;;;;;;;9.20;7.17;;;;;;;29.49;41.53;99786.72;2706317;88;21076;-64
2021/07/24 17:27:30;;;;;;;10.75;9.20;;;;;;;29.39;42.21;99792.92;2706410;88;21015;-65
2021/07/24 17:31:32;;;;;;;11.48;8.80;;;;;;;29.30;42.57;99789.03;2705998;87;21075;-64
2021/07/24 17:35:38;;;;;;;17.30;7.80;;;;;;;29.06;43.15;99762.01;2706228;88;21518;-66
2021/07/24 17:40:13;;;;;;;23.80;10.05;;;;;;;28.99;43.26;99773.73;2706075;88;20976;-64
2021/07/24 17:44:15;;;;;;;23.05;8.95;;;;;;;28.99;43.26;99773.73;2706003;88;21597;-61
2021/07/24 17:48:54;;;;;;;19.25;9.05;;;;;;;28.85;44.34;99774.16;2705843;88;21415;-65
2021/07/24 17:52:56;;;;;;;11.38;7.65;;;;;;;28.73;44.77;99772.13;2705815;88;21099;-67
2021/07/24 17:57:34;;;;;;;11.97;7.90;;;;;;;28.58;45.51;99770.89;2705955;88;21465;-67
2021/07/24 18:01:36;;;;;;;10.43;7.87;;;;;;;28.36;45.89;99755.35;2705585;88;21104;-64
2021/07/24 18:05:38;;;;;;;13.32;9.13;;;;;;;28.26;46.34;99778.47;2705425;88;21056;-64
2021/07/24 18:09:47;;;;;;;10.00;8.18;;;;;;;28.08;46.79;99774.95;2705423;88;21024;-65
2021/07/24 18:13:50;;;;;;;11.78;7.80;;;;;;;27.96;47.20;99783.84;2693819;88;21036;-64
2021/07/24 18:17:51;;;;;;;18.20;8.78;;;;;;;27.76;47.58;99772.94;2689479;88;21025;-68
2021/07/24 18:21:53;;;;;;;22.27;10.60;;;;;;;27.62;48.00;99771.64;2689531;88;21060;-66
2021/07/24 18:25:58;;;;;;;16.57;9.90;;;;;;;27.45;48.44;99779.84;2688970;87;21048;-62
2021/07/24 18:29:59;;;;;;;22.05;11.05;;;;;;;27.29;48.93;99778.77;2705380;88;21012;-63
2021/07/24 18:34:01;;;;;;;19.30;9.88;;;;;;;27.15;49.51;99780.50;2631785;88;21047;-64
2021/07/24 18:38:05;;;;;;;16.90;8.90;;;;;;;26.98;49.75;99776.94;2665391;88;21055;-64
2021/07/24 18:42:07;;;;;;;27.37;9.53;;;;;;;26.78;50.12;99770.84;2628259;89;21087;-63
2021/07/24 18:46:16;;;;;;;28.23;10.03;;;;;;;26.60;50.57;99779.23;2690733;88;21008;-64
2021/07/24 18:50:20;;;;;;;27.73;11.08;;;;;;;26.43;51.03;99783.30;2664700;89;21057;-63
2021/07/24 18:54:22;;;;;;;18.47;9.90;;;;;;;26.30;51.28;99793.41;2664015;88;21039;-63
2021/07/24 18:58:23;;;;;;;27.58;10.20;;;;;;;26.15;51.70;99795.27;2664328;88;21099;-63
2021/07/24 19:02:25;;;;;;;23.07;10.20;;;;;;;26.03;51.85;99791.74;2664416;89;21047;-63